sim
Sign-in with your pilot id or email,
or register
Callsign
Passwort

Schedule Details

Flight Number: DLH1935
Departure: Trieste Friuli Venezia Giulia Airport (LIPQ) at 12:00
Arrival: Munich Airport (EDDM) at 13:00
Route: Lufthansa Passenger Schedule. Enter filed route here before submitting Pirep.

Weather Information
Getting current METAR information for LIPQ 240220Z AUTO 05002KT 9999 BKN027 BKN062 17/17 Q1010
Getting current METAR information for EDDM 240220Z VRB02KT CAVOK 10/09 Q1009 NOSIG

Schedule Frequency

Route Map